createdAt,value
2017-03-20T00:01:02.097Z,964.87
2017-03-20T00:02:12.352Z,964.86
2017-03-20T00:03:22.301Z,964.86
2017-03-20T00:04:32.558Z,964.86
2017-03-20T00:05:42.494Z,964.79
2017-03-20T00:06:52.119Z,964.83
2017-03-20T00:08:02.065Z,964.81
2017-03-20T00:09:11.701Z,964.81
2017-03-20T00:10:21.969Z,964.79
2017-03-20T00:11:31.917Z,964.84
2017-03-20T00:12:41.890Z,964.8
2017-03-20T00:13:51.842Z,964.78
2017-03-20T00:15:02.101Z,964.8
2017-03-20T00:16:12.372Z,964.77
2017-03-20T00:17:22.318Z,964.83
2017-03-20T00:18:32.261Z,964.79
2017-03-20T00:19:42.218Z,964.79
2017-03-20T00:20:52.475Z,964.77
2017-03-20T00:22:02.420Z,964.78
2017-03-20T00:23:12.362Z,964.76
2017-03-20T00:24:22.626Z,964.76
2017-03-20T00:25:32.573Z,964.73
2017-03-20T00:26:42.827Z,964.76
2017-03-20T00:27:52.446Z,964.72
2017-03-20T00:29:02.391Z,964.73
2017-03-20T00:30:12.043Z,964.74
2017-03-20T00:31:22.301Z,964.71
2017-03-20T00:32:32.567Z,964.66
2017-03-20T00:33:42.829Z,964.65
2017-03-20T00:34:52.469Z,964.69
2017-03-20T00:36:02.731Z,964.66
2017-03-20T00:37:12.042Z,964.67
2017-03-20T00:38:22.308Z,964.65
2017-03-20T00:39:32.575Z,964.64
2017-03-20T00:40:42.833Z,964.65
2017-03-20T00:41:52.778Z,964.65
2017-03-20T00:43:02.726Z,964.67
2017-03-20T00:44:12.992Z,964.66
2017-03-20T00:45:22.942Z,964.64
2017-03-20T00:46:33.199Z,964.66
2017-03-20T00:47:43.455Z,964.66
2017-03-20T00:48:53.407Z,964.65
2017-03-20T00:50:03.667Z,964.65
2017-03-20T00:51:13.610Z,964.6
2017-03-20T00:52:23.553Z,964.6
2017-03-20T00:53:33.817Z,964.57
2017-03-20T00:54:44.076Z,964.56
2017-03-20T00:55:54.336Z,964.53
2017-03-20T00:57:04.285Z,964.54
2017-03-20T00:58:14.545Z,964.52
2017-03-20T00:59:24.182Z,964.51
2017-03-20T01:00:34.126Z,964.51
2017-03-20T01:01:43.761Z,964.49
2017-03-20T01:02:53.709Z,964.48
2017-03-20T01:04:03.671Z,964.46
2017-03-20T01:05:13.933Z,964.47
2017-03-20T01:06:24.189Z,964.43
2017-03-20T01:07:34.137Z,964.43
2017-03-20T01:08:44.090Z,964.45
2017-03-20T01:09:54.353Z,964.47
2017-03-20T01:11:03.669Z,964.4
2017-03-20T01:12:13.923Z,964.39
2017-03-20T01:13:23.867Z,964.33
2017-03-20T01:14:33.810Z,964.36
2017-03-20T01:15:43.753Z,964.29
2017-03-20T01:16:54.007Z,964.32
2017-03-20T01:18:03.639Z,964.36
2017-03-20T01:19:13.902Z,964.34
2017-03-20T01:20:24.165Z,964.38
2017-03-20T01:21:34.429Z,964.37
2017-03-20T01:22:44.371Z,964.4
2017-03-20T01:23:54.629Z,964.38
2017-03-20T01:25:04.575Z,964.36
2017-03-20T01:26:14.834Z,964.37
2017-03-20T01:27:24.151Z,964.36
2017-03-20T01:28:34.422Z,964.3
2017-03-20T01:29:44.374Z,964.37
2017-03-20T01:30:54.633Z,964.3
2017-03-20T01:32:04.575Z,964.29
2017-03-20T01:33:14.523Z,964.28
2017-03-20T01:34:24.472Z,964.29
2017-03-20T01:35:34.724Z,964.3
2017-03-20T01:36:44.667Z,964.29
2017-03-20T01:37:54.923Z,964.24
2017-03-20T01:39:04.870Z,964.28
2017-03-20T01:40:14.813Z,964.24
2017-03-20T01:41:25.070Z,964.23
2017-03-20T01:42:35.052Z,964.25
2017-03-20T01:43:45.311Z,964.26
2017-03-20T01:44:55.299Z,964.22
2017-03-20T01:46:05.560Z,964.24
2017-03-20T01:47:15.189Z,964.21
2017-03-20T01:48:25.445Z,964.23
2017-03-20T01:49:35.081Z,964.19
2017-03-20T01:50:45.024Z,964.18
2017-03-20T01:51:55.280Z,964.16
2017-03-20T01:53:04.911Z,964.12
2017-03-20T01:54:15.171Z,964.16
2017-03-20T01:55:25.122Z,964.14
2017-03-20T01:56:35.394Z,964.19
2017-03-20T01:57:45.029Z,964.13
2017-03-20T01:58:55.290Z,964.16
2017-03-20T02:00:05.242Z,964.16
2017-03-20T02:01:15.498Z,964.14
2017-03-20T02:02:25.791Z,964.13
2017-03-20T02:03:36.072Z,964.11
2017-03-20T02:04:45.704Z,964.11
2017-03-20T02:05:55.973Z,964.12
2017-03-20T02:07:05.601Z,964.14
2017-03-20T02:08:15.894Z,964.14
2017-03-20T02:09:26.149Z,964.2
2017-03-20T02:10:36.099Z,964.13
2017-03-20T02:11:46.033Z,964.13
2017-03-20T02:12:56.286Z,964.12
2017-03-20T02:14:06.590Z,964.14
2017-03-20T02:15:16.853Z,964.11
2017-03-20T02:16:26.483Z,964.08
2017-03-20T02:17:36.421Z,964.13
2017-03-20T02:18:46.052Z,964.09
2017-03-20T02:19:56.311Z,964.11
2017-03-20T02:21:06.257Z,964.07
2017-03-20T02:22:16.203Z,964.09
2017-03-20T02:23:26.462Z,964.1
2017-03-20T02:24:36.723Z,964.11
2017-03-20T02:25:46.992Z,964.11
2017-03-20T02:26:57.247Z,964.11
2017-03-20T02:28:07.188Z,964.13
2017-03-20T02:29:17.144Z,964.11
2017-03-20T02:30:27.092Z,964.1
2017-03-20T02:31:37.037Z,964.12
2017-03-20T02:32:47.296Z,964.14
2017-03-20T02:33:57.237Z,964.16
2017-03-20T02:35:06.866Z,964.15
2017-03-20T02:36:16.502Z,964.09
2017-03-20T02:37:26.447Z,964.12
2017-03-20T02:38:36.080Z,964.06
2017-03-20T02:39:46.020Z,964.06
2017-03-20T02:40:55.975Z,964.08
2017-03-20T02:42:05.918Z,964.05
2017-03-20T02:43:16.189Z,964.08
2017-03-20T02:44:26.450Z,964.04
2017-03-20T02:45:36.700Z,964.06
2017-03-20T02:46:46.645Z,964.1
2017-03-20T02:47:56.594Z,964.04
2017-03-20T02:49:06.548Z,964.05
2017-03-20T02:50:16.815Z,964.08
2017-03-20T02:51:26.793Z,964.06
2017-03-20T02:52:36.741Z,964.09
2017-03-20T02:53:46.680Z,964.04
2017-03-20T02:54:56.939Z,964.03
2017-03-20T02:56:07.207Z,964.05
2017-03-20T02:57:17.460Z,964.02
2017-03-20T02:58:27.718Z,963.98
2017-03-20T02:59:37.359Z,963.99
2017-03-20T03:00:47.606Z,963.97
2017-03-20T03:01:57.551Z,963.96
2017-03-20T03:03:07.497Z,964
2017-03-20T03:04:17.758Z,963.95
2017-03-20T03:05:28.015Z,963.94
2017-03-20T03:06:37.999Z,963.92
2017-03-20T03:07:47.935Z,963.94
2017-03-20T03:08:57.891Z,963.92
2017-03-20T03:10:07.837Z,963.89
2017-03-20T03:11:17.777Z,963.91
2017-03-20T03:12:28.036Z,963.89
2017-03-20T03:13:37.991Z,963.9
2017-03-20T03:14:47.627Z,963.9
2017-03-20T03:15:57.902Z,963.89
2017-03-20T03:17:07.844Z,963.9
2017-03-20T03:18:17.789Z,963.88
2017-03-20T03:19:27.750Z,963.86
2017-03-20T03:20:37.692Z,963.83
2017-03-20T03:21:47.634Z,963.85
2017-03-20T03:22:57.880Z,963.83
2017-03-20T03:24:07.828Z,963.86
2017-03-20T03:25:18.085Z,963.82
2017-03-20T03:26:28.027Z,963.87
2017-03-20T03:27:37.966Z,963.85
2017-03-20T03:28:47.287Z,963.86
2017-03-20T03:29:57.552Z,963.86
2017-03-20T03:31:06.872Z,963.89
2017-03-20T03:32:17.124Z,963.85
2017-03-20T03:33:27.073Z,963.84
2017-03-20T03:34:37.025Z,963.85
2017-03-20T03:35:46.969Z,963.79
2017-03-20T03:36:57.230Z,963.84
2017-03-20T03:38:06.870Z,963.83
2017-03-20T03:39:17.136Z,963.85
2017-03-20T03:40:27.398Z,963.79
2017-03-20T03:41:37.656Z,963.77
2017-03-20T03:42:47.911Z,963.8
2017-03-20T03:43:58.198Z,963.79
2017-03-20T03:45:08.177Z,963.76
2017-03-20T03:46:17.810Z,963.81
2017-03-20T03:47:27.753Z,963.79
2017-03-20T03:48:37.704Z,963.79
2017-03-20T03:49:47.976Z,963.8
2017-03-20T03:50:58.231Z,963.8
2017-03-20T03:52:08.488Z,963.78
2017-03-20T03:53:18.742Z,963.76
2017-03-20T03:54:28.691Z,963.73
2017-03-20T03:55:38.948Z,963.77
2017-03-20T03:56:48.266Z,963.74
2017-03-20T03:57:58.520Z,963.73
2017-03-20T03:59:08.781Z,963.74
2017-03-20T04:00:18.725Z,963.74
2017-03-20T04:01:28.977Z,963.75
2017-03-20T04:02:39.240Z,963.73
2017-03-20T04:03:49.187Z,963.74
2017-03-20T04:04:59.152Z,963.73
2017-03-20T04:06:09.094Z,963.72
2017-03-20T04:07:18.723Z,963.77
2017-03-20T04:08:28.656Z,963.74
2017-03-20T04:09:38.597Z,963.77
2017-03-20T04:10:48.268Z,963.73
2017-03-20T04:11:58.211Z,963.7
2017-03-20T04:13:08.468Z,963.71
2017-03-20T04:14:18.731Z,963.66
2017-03-20T04:15:29.028Z,963.7
2017-03-20T04:16:38.664Z,963.62
2017-03-20T04:17:48.921Z,963.61
2017-03-20T04:18:58.874Z,963.62
2017-03-20T04:20:08.816Z,963.57
2017-03-20T04:21:18.758Z,963.62
2017-03-20T04:22:29.006Z,963.59
2017-03-20T04:23:38.639Z,963.6
2017-03-20T04:24:48.907Z,963.6
2017-03-20T04:25:59.185Z,963.59
2017-03-20T04:27:09.134Z,963.57
2017-03-20T04:28:19.075Z,963.63
2017-03-20T04:29:29.381Z,963.59
2017-03-20T04:30:39.345Z,963.61
2017-03-20T04:31:49.606Z,963.57
2017-03-20T04:32:59.232Z,963.61
2017-03-20T04:34:09.506Z,963.65
2017-03-20T04:35:19.771Z,963.65
2017-03-20T04:36:29.711Z,963.61
2017-03-20T04:37:39.651Z,963.68
2017-03-20T04:38:49.599Z,963.67
2017-03-20T04:39:59.866Z,963.65
2017-03-20T04:41:09.492Z,963.73
2017-03-20T04:42:19.787Z,963.69
2017-03-20T04:43:29.739Z,963.68
2017-03-20T04:44:40.007Z,963.68
2017-03-20T04:45:50.258Z,963.66
2017-03-20T04:47:00.191Z,963.73
2017-03-20T04:48:09.831Z,963.73
2017-03-20T04:49:19.777Z,963.7
2017-03-20T04:50:29.731Z,963.74
2017-03-20T04:51:39.990Z,963.71
2017-03-20T04:52:50.254Z,963.72
2017-03-20T04:54:00.509Z,963.74
2017-03-20T04:55:10.452Z,963.75
2017-03-20T04:56:20.704Z,963.7
2017-03-20T04:57:30.641Z,963.76
2017-03-20T04:58:40.618Z,963.77
2017-03-20T04:59:50.883Z,963.74
2017-03-20T05:01:00.830Z,963.75
2017-03-20T05:02:11.084Z,963.76
2017-03-20T05:03:21.338Z,963.71
2017-03-20T05:04:31.599Z,963.74
2017-03-20T05:05:41.861Z,963.7
2017-03-20T05:06:52.112Z,963.69
2017-03-20T05:08:02.054Z,963.7
2017-03-20T05:09:11.689Z,963.7
2017-03-20T05:10:21.636Z,963.67
2017-03-20T05:11:31.889Z,963.67
2017-03-20T05:12:41.825Z,963.69
2017-03-20T05:13:51.764Z,963.65
2017-03-20T05:15:01.722Z,963.63
2017-03-20T05:16:11.686Z,963.64
2017-03-20T05:17:21.942Z,963.68
2017-03-20T05:18:32.203Z,963.69
2017-03-20T05:19:41.840Z,963.66
2017-03-20T05:20:51.782Z,963.67
2017-03-20T05:22:01.719Z,963.64
2017-03-20T05:23:11.973Z,963.64
2017-03-20T05:24:21.924Z,963.67
2017-03-20T05:25:32.192Z,963.66
2017-03-20T05:26:42.131Z,963.68
2017-03-20T05:27:52.387Z,963.75
2017-03-20T05:29:02.649Z,963.76
2017-03-20T05:30:12.918Z,963.76
2017-03-20T05:31:22.860Z,963.8
2017-03-20T05:32:33.119Z,963.78
2017-03-20T05:33:43.380Z,963.77
2017-03-20T05:34:53.639Z,963.77
2017-03-20T05:36:03.624Z,963.77
2017-03-20T05:37:13.568Z,963.78
2017-03-20T05:38:23.823Z,963.74
2017-03-20T05:39:34.086Z,963.72
2017-03-20T05:40:43.714Z,963.7
2017-03-20T05:41:53.660Z,963.7
2017-03-20T05:43:03.289Z,963.73
2017-03-20T05:44:13.239Z,963.75
2017-03-20T05:45:23.496Z,963.74
2017-03-20T05:46:33.754Z,963.73
2017-03-20T05:47:43.704Z,963.78
2017-03-20T05:48:53.651Z,963.76
2017-03-20T05:50:03.594Z,963.76
2017-03-20T05:51:13.843Z,963.78
2017-03-20T05:52:23.778Z,963.78
2017-03-20T05:53:34.121Z,963.75
2017-03-20T05:54:44.400Z,963.75
2017-03-20T05:55:54.348Z,963.74
2017-03-20T05:57:04.284Z,963.74
2017-03-20T05:58:14.579Z,963.72
2017-03-20T05:59:24.525Z,963.75
2017-03-20T06:00:33.843Z,963.75
2017-03-20T06:01:46.158Z,963.8
2017-03-20T06:02:56.410Z,963.72
2017-03-20T06:04:06.675Z,963.74
2017-03-20T06:05:16.938Z,963.8
2017-03-20T06:06:26.908Z,963.78
2017-03-20T06:07:37.162Z,963.82
2017-03-20T06:08:47.481Z,963.85
2017-03-20T06:09:57.434Z,963.85
2017-03-20T06:11:07.378Z,963.84
2017-03-20T06:12:17.643Z,963.82
2017-03-20T06:13:27.270Z,963.82
2017-03-20T06:14:37.546Z,963.87
2017-03-20T06:15:47.844Z,963.86
2017-03-20T06:16:58.096Z,963.86
2017-03-20T06:18:08.043Z,963.85
2017-03-20T06:19:17.992Z,963.88
2017-03-20T06:20:28.255Z,963.9
2017-03-20T06:21:38.201Z,963.93
2017-03-20T06:22:48.142Z,963.94
2017-03-20T06:23:58.400Z,963.86
2017-03-20T06:25:08.359Z,963.86
2017-03-20T06:26:18.619Z,963.87
2017-03-20T06:27:28.877Z,963.88
2017-03-20T06:28:38.193Z,963.87
2017-03-20T06:29:48.454Z,963.85
2017-03-20T06:30:58.717Z,963.82
2017-03-20T06:32:08.974Z,963.85
2017-03-20T06:33:19.236Z,963.91
2017-03-20T06:34:29.496Z,963.97
2017-03-20T06:35:39.435Z,963.91
2017-03-20T06:36:49.378Z,963.93
2017-03-20T06:37:59.330Z,963.86
2017-03-20T06:39:09.588Z,963.84
2017-03-20T06:40:19.543Z,963.82
2017-03-20T06:41:29.485Z,963.81
2017-03-20T06:42:39.750Z,963.81
2017-03-20T06:43:49.379Z,963.83
2017-03-20T06:44:59.332Z,963.75
2017-03-20T06:46:09.273Z,963.75
2017-03-20T06:47:19.532Z,963.74
2017-03-20T06:48:29.806Z,963.75
2017-03-20T06:49:40.117Z,963.75
2017-03-20T06:50:49.746Z,963.84
2017-03-20T06:52:00.006Z,963.86
2017-03-20T06:53:09.943Z,963.78
2017-03-20T06:54:20.198Z,963.77
2017-03-20T06:55:30.452Z,963.78
2017-03-20T06:56:40.715Z,963.76
2017-03-20T06:57:50.965Z,963.75
2017-03-20T06:59:00.902Z,963.73
2017-03-20T07:00:10.849Z,963.72
2017-03-20T07:01:20.794Z,963.72
2017-03-20T07:02:30.730Z,963.75
2017-03-20T07:03:40.986Z,963.73
2017-03-20T07:04:51.252Z,963.73
2017-03-20T07:06:01.203Z,963.78
2017-03-20T07:07:10.837Z,963.8
2017-03-20T07:08:20.781Z,963.85
2017-03-20T07:09:30.467Z,963.9
2017-03-20T07:10:40.787Z,963.9
2017-03-20T07:11:51.043Z,963.91
2017-03-20T07:13:00.989Z,963.91
2017-03-20T07:14:10.937Z,963.91
2017-03-20T07:15:21.197Z,963.98
2017-03-20T07:16:31.456Z,963.94
2017-03-20T07:17:41.083Z,964
2017-03-20T07:18:51.033Z,963.99
2017-03-20T07:20:01.296Z,964.02
2017-03-20T07:21:11.249Z,963.99
2017-03-20T07:22:21.194Z,963.93
2017-03-20T07:23:31.134Z,963.92
2017-03-20T07:24:41.079Z,963.9
2017-03-20T07:25:51.017Z,963.87
2017-03-20T07:27:01.282Z,963.88
2017-03-20T07:28:10.925Z,963.88
2017-03-20T07:29:21.185Z,963.91
2017-03-20T07:30:31.446Z,963.92
2017-03-20T07:31:41.697Z,963.84
2017-03-20T07:32:51.950Z,963.82
2017-03-20T07:34:02.215Z,963.82
2017-03-20T07:35:12.162Z,963.78
2017-03-20T07:36:22.132Z,963.78
2017-03-20T07:37:32.075Z,963.85
2017-03-20T07:38:42.385Z,963.88
2017-03-20T07:39:52.656Z,963.89
2017-03-20T07:41:02.921Z,963.94
2017-03-20T07:42:12.864Z,963.96
2017-03-20T07:43:22.813Z,963.98
2017-03-20T07:44:32.755Z,963.97
2017-03-20T07:45:42.698Z,964
2017-03-20T07:46:52.951Z,963.99
2017-03-20T07:48:03.200Z,964
2017-03-20T07:49:12.835Z,964.01
2017-03-20T07:50:23.147Z,963.91
2017-03-20T07:51:33.091Z,963.91
2017-03-20T07:52:43.033Z,963.91
2017-03-20T07:53:53.294Z,963.93
2017-03-20T07:55:03.558Z,963.91
2017-03-20T07:56:13.813Z,963.95
2017-03-20T07:57:24.066Z,963.95
2017-03-20T07:58:34.016Z,963.96
2017-03-20T07:59:44.275Z,963.94
2017-03-20T08:00:54.229Z,963.89
2017-03-20T08:02:03.862Z,963.9
2017-03-20T08:03:14.122Z,963.89
2017-03-20T08:04:24.385Z,963.91
2017-03-20T08:05:34.643Z,963.93
2017-03-20T08:06:44.905Z,963.96
2017-03-20T08:07:54.849Z,963.96
2017-03-20T08:09:04.791Z,963.89
2017-03-20T08:10:15.055Z,963.92
2017-03-20T08:11:24.989Z,963.92
2017-03-20T08:12:35.247Z,963.98
2017-03-20T08:13:45.194Z,963.99
2017-03-20T08:14:55.454Z,963.97
2017-03-20T08:16:05.405Z,963.94
2017-03-20T08:17:15.344Z,963.98
2017-03-20T08:18:25.609Z,963.95
2017-03-20T08:19:35.882Z,964.01
2017-03-20T08:20:45.831Z,963.96
2017-03-20T08:21:56.087Z,963.96
2017-03-20T08:23:06.355Z,963.86
2017-03-20T08:24:15.987Z,963.89
2017-03-20T08:25:25.946Z,963.82
2017-03-20T08:26:35.896Z,963.81
2017-03-20T08:27:46.148Z,963.92
2017-03-20T08:28:56.146Z,964.01
2017-03-20T08:30:06.099Z,964.06
2017-03-20T08:31:16.047Z,963.93
2017-03-20T08:32:25.981Z,963.94
2017-03-20T08:33:35.923Z,963.98
2017-03-20T08:34:46.182Z,964.03
2017-03-20T08:35:56.139Z,964.05
2017-03-20T08:37:05.769Z,963.97
2017-03-20T08:38:15.716Z,963.99
2017-03-20T08:39:25.030Z,964.01
2017-03-20T08:40:35.010Z,963.97
2017-03-20T08:41:44.951Z,963.97
2017-03-20T08:42:55.206Z,963.92
2017-03-20T08:44:05.161Z,963.9
2017-03-20T08:45:15.422Z,963.94
2017-03-20T08:46:25.679Z,963.88
2017-03-20T08:47:35.632Z,963.92
2017-03-20T08:48:45.903Z,963.93
2017-03-20T08:49:55.536Z,963.96
2017-03-20T08:51:05.488Z,963.94
2017-03-20T08:52:15.796Z,963.98
2017-03-20T08:53:25.440Z,963.99
2017-03-20T08:54:35.390Z,963.92
2017-03-20T08:55:45.656Z,963.95
2017-03-20T08:56:55.602Z,963.96
2017-03-20T08:58:05.862Z,964.04
2017-03-20T08:59:16.143Z,964.03
2017-03-20T09:00:25.785Z,964.04
2017-03-20T09:01:36.044Z,964.08
2017-03-20T09:02:46.300Z,964.11
2017-03-20T09:03:56.251Z,964.1
2017-03-20T09:05:06.512Z,964.05
2017-03-20T09:06:16.456Z,964.01
2017-03-20T09:07:26.087Z,964.02
2017-03-20T09:08:36.357Z,963.96
2017-03-20T09:09:46.301Z,963.88
2017-03-20T09:10:56.238Z,963.92
2017-03-20T09:12:06.498Z,963.92
2017-03-20T09:13:16.123Z,963.99
2017-03-20T09:14:25.471Z,963.97
2017-03-20T09:15:35.729Z,963.97
2017-03-20T09:16:45.997Z,963.97
2017-03-20T09:17:56.253Z,964
2017-03-20T09:19:06.519Z,963.96
2017-03-20T09:20:16.484Z,964.02
2017-03-20T09:21:26.109Z,963.94
2017-03-20T09:22:36.363Z,963.98
2017-03-20T09:23:46.624Z,964.02
2017-03-20T09:24:56.891Z,964.08
2017-03-20T09:26:06.832Z,964.06
2017-03-20T09:27:17.083Z,964.06
2017-03-20T09:28:27.336Z,964.04
2017-03-20T09:29:37.603Z,964.05
2017-03-20T09:30:47.863Z,963.99
2017-03-20T09:31:57.804Z,963.96
2017-03-20T09:33:07.429Z,963.87
2017-03-20T09:34:17.696Z,963.86
2017-03-20T09:35:27.644Z,963.82
2017-03-20T09:36:37.588Z,963.8
2017-03-20T09:37:47.573Z,963.84
2017-03-20T09:38:57.865Z,963.83
2017-03-20T09:40:07.815Z,963.83
2017-03-20T09:41:17.762Z,963.79
2017-03-20T09:42:28.017Z,963.8
2017-03-20T09:43:37.647Z,963.79
2017-03-20T09:44:47.609Z,963.84
2017-03-20T09:45:57.553Z,963.89
2017-03-20T09:47:07.804Z,963.89
2017-03-20T09:48:18.073Z,963.89
2017-03-20T09:49:28.027Z,964.02
2017-03-20T09:50:37.967Z,964.11
2017-03-20T09:51:48.223Z,963.97
2017-03-20T09:52:58.162Z,963.95
2017-03-20T09:54:08.417Z,963.92
2017-03-20T09:55:18.360Z,963.99
2017-03-20T09:56:28.303Z,963.97
2017-03-20T09:57:38.610Z,963.97
2017-03-20T09:58:48.556Z,963.97
2017-03-20T09:59:58.822Z,964
2017-03-20T10:01:08.795Z,963.93
2017-03-20T10:02:18.742Z,964
2017-03-20T10:03:28.408Z,964.02
2017-03-20T10:04:38.685Z,963.95
2017-03-20T10:05:48.948Z,963.96
2017-03-20T10:06:59.203Z,963.96
2017-03-20T10:08:09.149Z,963.9
2017-03-20T10:09:19.414Z,963.85
2017-03-20T10:10:29.367Z,963.91
2017-03-20T10:11:39.328Z,963.89
2017-03-20T10:12:49.590Z,963.86
2017-03-20T10:13:59.855Z,963.84
2017-03-20T10:15:09.800Z,963.85
2017-03-20T10:16:20.071Z,963.86
2017-03-20T10:17:30.015Z,963.91
2017-03-20T10:18:39.966Z,963.97
2017-03-20T10:19:50.233Z,963.91
2017-03-20T10:21:00.181Z,963.96
2017-03-20T10:22:10.434Z,963.93
2017-03-20T10:23:20.782Z,963.89
2017-03-20T10:24:31.046Z,963.83
2017-03-20T10:25:40.998Z,963.83
2017-03-20T10:26:51.255Z,963.83
2017-03-20T10:28:00.891Z,963.76
2017-03-20T10:29:10.840Z,963.81
2017-03-20T10:31:42.906Z,963.84
2017-03-20T10:32:52.849Z,963.85
2017-03-20T10:34:03.110Z,963.81
2017-03-20T10:35:13.382Z,963.81
2017-03-20T10:36:23.789Z,963.75
2017-03-20T10:37:34.052Z,963.8
2017-03-20T10:38:44.012Z,963.81
2017-03-20T10:39:54.272Z,963.83
2017-03-20T10:41:04.224Z,963.86
2017-03-20T10:43:27.784Z,963.82
2017-03-20T10:44:37.739Z,963.87
2017-03-20T10:45:47.706Z,963.92
2017-03-20T10:46:57.979Z,963.92
2017-03-20T10:48:08.237Z,963.96
2017-03-20T10:49:18.188Z,963.95
2017-03-20T10:50:28.146Z,963.94
2017-03-20T10:51:38.406Z,963.92
2017-03-20T10:52:48.042Z,963.92
2017-03-20T10:53:58.311Z,964.01
2017-03-20T10:55:07.947Z,963.98
2017-03-20T10:56:17.584Z,963.89
2017-03-20T10:57:27.845Z,963.91
2017-03-20T10:58:38.115Z,963.86
2017-03-20T10:59:48.384Z,963.87
2017-03-20T11:00:58.652Z,963.88
2017-03-20T11:02:08.908Z,963.83
2017-03-20T11:03:18.572Z,963.83
2017-03-20T11:04:28.835Z,963.88
2017-03-20T11:05:39.102Z,963.84
2017-03-20T11:06:49.357Z,963.91
2017-03-20T11:07:59.615Z,963.96
2017-03-20T11:09:09.882Z,963.98
2017-03-20T11:10:19.518Z,964.01
2017-03-20T11:11:29.776Z,964.05
2017-03-20T11:12:39.404Z,964.08
2017-03-20T11:13:49.039Z,964.15
2017-03-20T11:14:59.308Z,964.17
2017-03-20T11:16:09.255Z,964.29
2017-03-20T11:17:19.202Z,964.33
2017-03-20T11:18:29.475Z,964.36
2017-03-20T11:19:39.438Z,964.31
2017-03-20T11:20:49.383Z,964.4
2017-03-20T11:21:59.020Z,964.42
2017-03-20T11:23:08.967Z,964.5
2017-03-20T11:24:19.234Z,964.5
2017-03-20T11:25:29.495Z,964.45
2017-03-20T11:26:39.131Z,964.26
2017-03-20T11:27:49.398Z,964.32
2017-03-20T11:28:59.676Z,964.57
2017-03-20T11:30:09.950Z,964.61
2017-03-20T11:31:19.897Z,964.59
2017-03-20T11:32:30.165Z,964.62
2017-03-20T11:33:40.124Z,964.48
2017-03-20T11:34:49.461Z,964.49
2017-03-20T11:35:59.418Z,964.54
2017-03-20T11:37:09.701Z,964.57
2017-03-20T11:38:19.980Z,964.66
2017-03-20T11:39:29.313Z,964.72
2017-03-20T11:40:39.267Z,964.76
2017-03-20T11:41:48.908Z,964.32
2017-03-20T11:42:59.188Z,964.77
2017-03-20T11:44:08.833Z,964.71
2017-03-20T11:45:18.478Z,964.72
2017-03-20T11:46:28.751Z,964.2
2017-03-20T11:47:38.716Z,964.75
2017-03-20T11:48:48.679Z,964.59
2017-03-20T11:49:58.019Z,964.53
2017-03-20T11:51:07.976Z,964.72
2017-03-20T11:52:17.619Z,964.59
2017-03-20T11:53:27.884Z,964.47
2017-03-20T11:54:37.846Z,964.67
2017-03-20T11:55:48.116Z,964.68
2017-03-20T11:56:57.764Z,964.57
2017-03-20T11:58:07.413Z,964.33
2017-03-20T11:59:17.383Z,964.29
2017-03-20T12:00:27.370Z,964.39
2017-03-20T12:01:37.324Z,964.49
2017-03-20T12:02:47.278Z,964.6
2017-03-20T12:03:57.559Z,964.83
2017-03-20T12:05:07.525Z,964.98
2017-03-20T12:06:17.792Z,964.84
2017-03-20T12:07:27.437Z,964.6
2017-03-20T12:08:37.406Z,964.87
2017-03-20T12:09:47.364Z,964.97
2017-03-20T12:10:57.323Z,964.97
2017-03-20T12:12:07.284Z,965.13
2017-03-20T12:13:17.563Z,964.96
2017-03-20T12:14:27.526Z,965.2
2017-03-20T12:15:37.488Z,964.27
2017-03-20T12:16:47.441Z,964.96
2017-03-20T12:17:57.090Z,966.14
2017-03-20T12:19:07.373Z,966.24
2017-03-20T12:20:17.337Z,965.94
2017-03-20T12:21:27.606Z,966.09
2017-03-20T12:22:37.565Z,965.85
2017-03-20T12:23:47.534Z,965.48
2017-03-20T12:24:57.502Z,965.69
2017-03-20T12:26:07.464Z,965.16
2017-03-20T12:27:16.793Z,964.45
2017-03-20T12:28:26.451Z,964.37
2017-03-20T12:29:36.725Z,964.2
2017-03-20T12:30:46.053Z,964.3
2017-03-20T12:31:56.008Z,964.26
2017-03-20T12:33:05.969Z,964.44
2017-03-20T12:34:15.932Z,966.08
2017-03-20T12:35:25.888Z,964.53
2017-03-20T12:36:36.158Z,964.54
2017-03-20T12:37:46.115Z,964.04
2017-03-20T12:38:56.085Z,964.33
2017-03-20T12:40:06.043Z,964.58
2017-03-20T12:41:16.311Z,964.59
2017-03-20T12:42:25.643Z,964.52
2017-03-20T12:43:35.925Z,964.4
2017-03-20T12:44:45.898Z,964.47
2017-03-20T12:45:54.914Z,964.51
2017-03-20T12:47:04.867Z,964.99
2017-03-20T12:48:14.835Z,964.77
2017-03-20T12:49:25.121Z,964.81
2017-03-20T12:50:34.762Z,964.8
2017-03-20T12:51:44.720Z,964.7
2017-03-20T12:52:54.679Z,964.4
2017-03-20T12:54:04.324Z,964.38
2017-03-20T12:55:14.283Z,964.45
2017-03-20T12:56:23.610Z,964.38
2017-03-20T12:57:33.879Z,964.49
2017-03-20T12:58:43.838Z,964.51
2017-03-20T12:59:53.800Z,964.57
2017-03-20T13:01:04.090Z,964.48
2017-03-20T13:02:14.044Z,964.47
2017-03-20T13:03:24.318Z,964.36
2017-03-20T13:04:34.277Z,964.4
2017-03-20T13:05:44.229Z,964.38
2017-03-20T13:06:54.499Z,964.31
2017-03-20T13:08:04.450Z,964.47
2017-03-20T13:09:13.774Z,964.52
2017-03-20T13:10:24.047Z,964.44
2017-03-20T13:11:33.685Z,964.42
2017-03-20T13:12:43.950Z,964.5
2017-03-20T13:13:53.915Z,964.6
2017-03-20T13:15:04.195Z,964.78
2017-03-20T13:16:14.156Z,964.84
2017-03-20T13:17:24.104Z,965.43
2017-03-20T13:18:34.371Z,965.21
2017-03-20T13:19:44.643Z,964.82
2017-03-20T13:20:54.598Z,964.83
2017-03-20T13:22:04.552Z,964.6
2017-03-20T13:23:14.503Z,964.4
2017-03-20T13:24:24.773Z,964.37
2017-03-20T13:25:35.040Z,964.12
2017-03-20T13:26:44.675Z,964.26
2017-03-20T13:27:54.941Z,963.89
2017-03-20T13:29:05.240Z,963.86
2017-03-20T13:30:15.554Z,963.74
2017-03-20T13:31:25.819Z,963.84
2017-03-20T13:32:35.474Z,964.13
2017-03-20T13:33:45.744Z,964.02
2017-03-20T13:34:55.387Z,963.91
2017-03-20T13:36:05.350Z,963.99
2017-03-20T13:37:15.302Z,963.84
2017-03-20T13:38:24.951Z,963.74
2017-03-20T13:39:34.911Z,963.74
2017-03-20T13:40:44.862Z,963.66
2017-03-20T13:41:54.818Z,963.71
2017-03-20T13:43:05.093Z,963.8
2017-03-20T13:44:15.363Z,963.8
2017-03-20T13:45:25.003Z,963.68
2017-03-20T13:46:34.642Z,963.64
2017-03-20T13:47:44.910Z,963.65
2017-03-20T13:48:55.188Z,963.66
2017-03-20T13:50:05.138Z,963.66
2017-03-20T13:51:15.405Z,963.71
2017-03-20T13:52:25.046Z,963.75
2017-03-20T13:53:35.312Z,963.78
2017-03-20T13:54:45.591Z,963.73
2017-03-20T13:55:55.236Z,963.72
2017-03-20T13:57:05.503Z,963.63
2017-03-20T13:58:15.767Z,963.55
2017-03-20T13:59:25.404Z,963.61
2017-03-20T14:00:35.674Z,963.6
2017-03-20T14:01:45.941Z,963.6
2017-03-20T14:02:55.578Z,963.65
2017-03-20T14:04:05.850Z,963.65
2017-03-20T14:05:15.811Z,963.63
2017-03-20T14:06:26.087Z,963.63
2017-03-20T14:07:36.042Z,963.58
2017-03-20T14:08:46.002Z,963.58
2017-03-20T14:09:55.656Z,963.54
2017-03-20T14:11:05.604Z,963.52
2017-03-20T14:12:15.871Z,963.47
2017-03-20T14:13:25.830Z,963.54
2017-03-20T14:14:35.778Z,963.55
2017-03-20T14:15:45.419Z,963.55
2017-03-20T14:16:55.373Z,963.59
2017-03-20T14:18:05.641Z,963.57
2017-03-20T14:19:15.610Z,963.48
2017-03-20T14:20:25.885Z,963.36
2017-03-20T14:21:36.147Z,963.36
2017-03-20T14:22:45.791Z,963.36
2017-03-20T14:23:55.440Z,963.37
2017-03-20T14:25:05.710Z,963.32
2017-03-20T14:26:16.020Z,963.3
2017-03-20T14:27:25.973Z,963.2
2017-03-20T14:28:35.923Z,963.17
2017-03-20T14:29:45.887Z,963.18
2017-03-20T14:30:55.846Z,963.18
2017-03-20T14:32:06.109Z,963.14
2017-03-20T14:33:16.369Z,963.08
2017-03-20T14:34:26.015Z,963.1
2017-03-20T14:35:35.969Z,963.1
2017-03-20T14:36:46.226Z,963.06
2017-03-20T14:37:56.490Z,963.03
2017-03-20T14:39:06.769Z,963.02
2017-03-20T14:40:17.043Z,962.99